createdAt,value
2022-12-13T00:02:08.742Z,20.60
2022-12-13T00:04:35.544Z,23.50
2022-12-13T00:07:02.205Z,21.50
2022-12-13T00:09:28.832Z,20.90
2022-12-13T00:11:55.524Z,22.60
2022-12-13T00:14:22.309Z,24.20
2022-12-13T00:16:49.200Z,23.40
2022-12-13T00:19:16.132Z,22.70
2022-12-13T00:21:42.825Z,22.50
2022-12-13T00:24:09.778Z,23.10
2022-12-13T00:26:36.577Z,22.90
2022-12-13T00:29:05.201Z,22.80
2022-12-13T00:34:18.985Z,23.50
2022-12-13T00:36:45.765Z,23.20
2022-12-13T00:39:14.011Z,24.90
2022-12-13T00:41:41.591Z,24.50
2022-12-13T00:44:08.223Z,26.60
2022-12-13T00:46:34.891Z,28.50
2022-12-13T00:49:01.674Z,28.50
2022-12-13T00:51:30.118Z,27.00
2022-12-13T00:53:56.926Z,26.70
2022-12-13T00:56:25.560Z,28.60
2022-12-13T00:58:52.591Z,26.80
2022-12-13T01:01:21.183Z,26.40
2022-12-13T01:03:47.948Z,24.70
2022-12-13T01:06:17.461Z,23.70
2022-12-13T01:08:44.494Z,26.20
2022-12-13T01:11:11.286Z,24.70
2022-12-13T01:13:38.054Z,25.30
2022-12-13T01:16:05.730Z,24.30
2022-12-13T01:18:32.368Z,24.20
2022-12-13T01:21:06.466Z,23.50
2022-12-13T01:23:33.328Z,25.00
2022-12-13T01:26:03.389Z,24.60
2022-12-13T01:28:30.095Z,24.80
2022-12-13T01:30:57.653Z,23.80
2022-12-13T01:33:24.430Z,25.00
2022-12-13T01:35:51.218Z,23.80
2022-12-13T01:38:18.710Z,24.00
2022-12-13T01:40:58.995Z,24.60
2022-12-13T01:43:50.091Z,24.80
2022-12-13T01:46:17.704Z,25.30
2022-12-13T01:48:48.915Z,26.00
2022-12-13T01:51:16.676Z,26.30
2022-12-13T01:53:43.470Z,26.90
2022-12-13T01:56:16.808Z,24.00
2022-12-13T01:58:43.421Z,27.30
2022-12-13T02:01:10.052Z,24.80
2022-12-13T02:03:36.955Z,25.20
2022-12-13T02:06:07.001Z,26.10
2022-12-13T02:08:35.583Z,24.40
2022-12-13T02:11:02.918Z,25.80
2022-12-13T02:13:29.531Z,23.70
2022-12-13T02:16:28.317Z,23.10
2022-12-13T02:19:04.191Z,22.80
2022-12-13T02:21:36.151Z,24.50
2022-12-13T02:24:32.206Z,22.30
2022-12-13T02:27:13.646Z,22.80
2022-12-13T02:29:56.383Z,23.80
2022-12-13T02:32:28.572Z,23.50
2022-12-13T02:35:07.346Z,22.70
2022-12-13T02:37:49.617Z,24.80
2022-12-13T02:40:23.726Z,24.00
2022-12-13T02:43:01.183Z,23.50
2022-12-13T02:45:34.310Z,24.30
2022-12-13T02:48:01.967Z,24.00
2022-12-13T02:50:28.731Z,21.80
2022-12-13T02:52:55.372Z,21.90
2022-12-13T07:07:43.197Z,32.70
2022-12-13T07:10:12.504Z,34.20
2022-12-13T07:12:48.538Z,36.00
2022-12-13T07:15:15.188Z,34.10
2022-12-13T07:17:42.648Z,32.10
2022-12-13T07:20:09.834Z,31.50
2022-12-13T07:22:42.955Z,35.10
2022-12-13T07:25:28.441Z,37.00
2022-12-13T07:28:01.407Z,38.20
2022-12-13T07:30:30.994Z,37.20
2022-12-13T07:32:58.125Z,35.50
2022-12-13T07:35:24.788Z,36.40
2022-12-13T07:37:51.594Z,36.60
2022-12-13T07:40:18.347Z,34.40
2022-12-13T07:42:54.724Z,38.50
2022-12-13T07:45:21.910Z,38.60
2022-12-13T07:47:48.726Z,40.30
2022-12-13T07:50:25.069Z,43.10
2022-12-13T07:52:52.627Z,45.10
2022-12-13T07:55:23.341Z,48.80
2022-12-13T07:58:09.887Z,48.50
2022-12-13T08:00:37.657Z,61.10
2022-12-13T08:03:04.456Z,59.90
2022-12-13T08:05:38.987Z,51.40
2022-12-13T08:08:07.622Z,48.50
2022-12-13T08:10:34.244Z,45.40
2022-12-13T08:13:04.176Z,38.20
2022-12-13T08:15:30.866Z,37.50
2022-12-13T08:17:57.988Z,34.10
2022-12-13T08:20:24.642Z,34.40
2022-12-13T08:23:01.803Z,34.90
2022-12-13T08:25:29.748Z,30.80
2022-12-13T08:27:56.437Z,30.90
2022-12-13T08:30:30.844Z,30.30
2022-12-13T08:32:57.747Z,31.70
2022-12-13T08:35:33.468Z,29.20
2022-12-13T08:38:01.097Z,29.00
2022-12-13T08:40:27.808Z,27.50
2022-12-13T08:42:57.627Z,27.80
2022-12-13T08:45:24.349Z,28.10
2022-12-13T08:47:51.139Z,28.30
2022-12-13T08:50:17.862Z,29.00
2022-12-13T08:52:45.138Z,28.10
2022-12-13T08:55:12.905Z,27.70
2022-12-13T08:57:39.684Z,27.40
2022-12-13T09:00:07.350Z,28.40
2022-12-13T09:02:38.444Z,26.70
2022-12-13T09:05:06.007Z,28.60
2022-12-13T09:07:32.820Z,26.80
2022-12-13T09:09:59.473Z,26.20
2022-12-13T09:12:46.175Z,26.50
2022-12-13T09:15:22.945Z,25.50
2022-12-13T09:17:52.758Z,25.10
2022-12-13T09:20:28.841Z,25.80
2022-12-13T09:23:01.575Z,27.20
2022-12-13T09:25:37.038Z,25.50
2022-12-13T09:28:08.533Z,26.00
2022-12-13T09:30:36.626Z,24.10
2022-12-13T09:33:17.889Z,26.30
2022-12-13T09:35:52.160Z,25.20
2022-12-13T09:38:19.282Z,25.50
2022-12-13T09:40:46.092Z,27.80
2022-12-13T09:43:22.655Z,27.20
2022-12-13T09:45:51.358Z,24.80
2022-12-13T09:48:22.297Z,25.30
2022-12-13T09:50:58.319Z,25.30
2022-12-13T09:53:37.182Z,24.90
2022-12-13T09:56:10.884Z,26.50
2022-12-13T09:58:40.006Z,28.20
2022-12-13T10:01:06.683Z,28.50
2022-12-13T10:03:34.727Z,30.00
2022-12-13T10:06:23.356Z,31.10
2022-12-13T10:08:57.901Z,27.70
2022-12-13T10:11:31.302Z,29.70
2022-12-13T10:16:43.755Z,29.90
2022-12-13T10:19:52.342Z,29.00
2022-12-13T10:22:20.449Z,32.30
2022-12-13T10:24:53.741Z,33.30
2022-12-13T10:27:33.903Z,33.10
2022-12-13T10:30:07.060Z,34.20
2022-12-13T10:32:42.285Z,36.20
2022-12-13T10:35:20.716Z,35.20
2022-12-13T10:37:47.386Z,33.20
2022-12-13T10:40:33.759Z,35.90
2022-12-13T10:43:17.468Z,36.20
2022-12-13T15:06:23.310Z,33.60
2022-12-13T15:08:51.208Z,35.60
2022-12-13T15:11:17.940Z,32.70
2022-12-13T15:13:46.372Z,35.00
2022-12-13T15:16:19.597Z,37.30
2022-12-13T15:18:50.699Z,39.30
2022-12-13T15:21:27.993Z,41.20
2022-12-13T15:23:58.080Z,42.50
2022-12-13T15:26:47.803Z,37.10
2022-12-13T15:29:14.449Z,38.10
2022-12-13T15:31:41.245Z,47.60
2022-12-13T15:34:30.590Z,38.00
2022-12-13T15:37:31.439Z,37.90
2022-12-13T15:40:00.661Z,37.40
2022-12-13T15:42:38.150Z,35.30
2022-12-13T15:45:06.495Z,37.80
2022-12-13T15:47:33.407Z,36.90
2022-12-13T15:50:05.815Z,34.50
2022-12-13T15:52:39.166Z,33.70
2022-12-13T15:55:05.806Z,32.70
2022-12-13T15:57:56.539Z,32.40
2022-12-13T16:00:31.143Z,39.20
2022-12-13T16:03:12.308Z,34.30
2022-12-13T16:05:42.526Z,32.00
2022-12-13T16:08:23.157Z,33.20
2022-12-13T16:10:50.379Z,31.00
2022-12-13T16:13:26.130Z,26.40
2022-12-13T16:16:00.554Z,26.90
2022-12-13T16:18:44.781Z,29.10
2022-12-13T16:21:11.472Z,26.20
2022-12-13T16:23:38.143Z,31.70
2022-12-13T16:26:09.017Z,29.20
2022-12-13T16:28:36.111Z,28.90
2022-12-13T16:31:11.221Z,27.30
2022-12-13T16:33:37.949Z,26.00
2022-12-13T16:36:04.742Z,27.40
2022-12-13T16:38:31.356Z,26.30
2022-12-13T16:40:59.671Z,26.80
2022-12-13T16:43:33.026Z,28.10
2022-12-13T16:46:00.433Z,25.60
2022-12-13T16:48:47.517Z,23.20
2022-12-13T16:51:14.155Z,24.00
2022-12-13T16:53:40.803Z,26.00
2022-12-13T16:56:11.307Z,23.30
2022-12-13T16:58:37.991Z,25.40
2022-12-13T17:01:11.439Z,26.90
2022-12-13T17:03:38.597Z,23.80
2022-12-13T17:06:06.228Z,24.70
2022-12-13T17:08:33.957Z,23.50
2022-12-13T17:11:00.680Z,24.90
2022-12-13T17:13:28.383Z,26.20
2022-12-13T17:15:59.134Z,24.50
2022-12-13T17:18:27.059Z,24.40
2022-12-13T17:20:58.399Z,23.60
2022-12-13T17:23:27.187Z,22.50
2022-12-13T17:25:58.070Z,23.60
2022-12-13T17:28:25.626Z,23.50
2022-12-13T17:30:54.983Z,24.50
2022-12-13T17:33:22.335Z,23.30
2022-12-13T17:35:49.039Z,21.70
2022-12-13T17:38:15.664Z,20.20
2022-12-13T17:40:42.313Z,19.50
2022-12-13T17:43:27.215Z,22.00
2022-12-13T17:46:07.453Z,21.60
2022-12-13T17:48:40.231Z,20.30
2022-12-13T17:51:08.765Z,18.90
2022-12-13T17:53:36.150Z,19.80
2022-12-13T17:56:04.468Z,19.00
2022-12-13T17:58:32.270Z,19.20
2022-12-13T18:00:59.471Z,18.80
2022-12-13T18:03:26.758Z,18.80
2022-12-13T18:05:57.860Z,16.90
2022-12-13T18:08:25.388Z,15.60
2022-12-13T18:11:15.790Z,14.40
2022-12-13T18:13:40.927Z,11.50
2022-12-13T18:16:08.752Z,15.20
2022-12-13T18:18:35.463Z,13.50
2022-12-13T18:21:11.989Z,10.30
2022-12-13T18:23:38.720Z,10.70
2022-12-13T18:26:07.023Z,9.10
2022-12-13T18:28:33.712Z,10.10
2022-12-13T18:31:05.556Z,9.40
2022-12-13T18:33:32.239Z,10.70
2022-12-13T18:35:59.051Z,11.50
